Time;durP1;ratioP1;P1;durP2;ratioP2;P2;SDS_P1;SDS_P2;PMS_P1;PMS_P2;Temp;Humidity;BMP_temperature;BMP_pressure;BME280_temperature;BME280_humidity;BME280_pressure;Samples;Min_cycle;Max_cycle;Signal;HPM_P1;HPM_P2
2022/06/12 00:01:14;;;;;;;4.10;2.00;;;;;;;21.55;54.50;101080.69;5088364;28;20639;-71
2022/06/12 00:03:43;;;;;;;5.43;2.20;;;;;;;21.51;55.26;101089.41;5088879;28;20223;-71
2022/06/12 00:06:16;;;;;;;6.93;1.87;;;;;;;21.43;55.32;101089.63;5087523;28;20215;-71
2022/06/12 00:08:43;;;;;;;4.23;1.93;;;;;;;21.44;55.78;101088.59;5086158;28;20262;-71
2022/06/12 00:11:19;;;;;;;5.37;2.43;;;;;;;21.51;55.45;101084.84;5087786;28;20233;-71
2022/06/12 00:13:55;;;;;;;4.33;1.87;;;;;;;21.47;55.74;101098.94;5082924;28;20234;-71
2022/06/12 00:16:25;;;;;;;5.50;1.90;;;;;;;21.37;55.69;101094.78;5084404;28;20233;-71
2022/06/12 00:18:54;;;;;;;2.93;1.73;;;;;;;21.34;55.94;101100.59;5087778;28;20649;-71
2022/06/12 00:21:23;;;;;;;4.20;1.73;;;;;;;21.36;55.88;101103.94;5086783;28;20199;-72
2022/06/12 00:23:54;;;;;;;5.27;2.30;;;;;;;21.28;56.62;101098.72;5084324;28;20221;-72
2022/06/12 00:26:26;;;;;;;8.10;2.30;;;;;;;21.25;56.89;101099.09;5086791;28;20294;-72
2022/06/12 00:28:59;;;;;;;7.97;2.23;;;;;;;21.21;56.93;101105.94;5081628;28;20268;-71
2022/06/12 00:31:30;;;;;;;6.77;2.20;;;;;;;21.24;57.02;101104.69;5088993;28;20226;-71
2022/06/12 00:33:58;;;;;;;8.70;2.33;;;;;;;21.33;57.10;101101.63;5084073;28;20210;-71
2022/06/12 00:36:26;;;;;;;4.20;2.27;;;;;;;21.45;56.47;101098.34;5085742;28;20217;-71
2022/06/12 00:38:54;;;;;;;9.77;2.60;;;;;;;21.54;56.55;101105.22;5084941;28;20959;-72
2022/06/12 00:41:22;;;;;;;4.70;2.47;;;;;;;21.48;56.96;101106.00;5086528;28;20698;-71
2022/06/12 00:43:52;;;;;;;4.33;2.10;;;;;;;21.53;56.70;101109.78;5083311;28;20298;-71
2022/06/12 00:46:42;;;;;;;4.33;2.10;;;;;;;21.64;56.95;101108.31;5088213;28;20219;-71
2022/06/12 00:49:14;;;;;;;4.00;2.10;;;;;;;21.67;56.75;101110.63;5085782;28;20230;-71
2022/06/12 00:51:43;;;;;;;5.50;2.40;;;;;;;21.72;56.99;101108.97;5085537;28;20903;-71
2022/06/12 00:54:20;;;;;;;6.27;2.60;;;;;;;21.73;56.79;101113.31;5086045;28;20218;-72
2022/06/12 00:56:55;;;;;;;4.50;2.80;;;;;;;21.73;57.00;101116.03;5085345;28;20213;-71
2022/06/12 00:59:35;;;;;;;5.37;2.47;;;;;;;21.74;57.16;101114.16;5087590;28;20308;-72
2022/06/12 01:02:06;;;;;;;4.40;2.40;;;;;;;21.76;57.47;101125.59;5084844;28;20218;-72
2022/06/12 01:07:31;;;;;;;8.07;2.73;;;;;;;21.80;56.98;101118.75;5085066;28;20657;-71
2022/06/12 01:10:02;;;;;;;4.47;2.40;;;;;;;21.63;57.90;101114.78;5084152;28;20206;-71
2022/06/12 01:12:36;;;;;;;5.97;2.33;;;;;;;21.42;58.83;101113.06;5085160;28;20683;-71
2022/06/12 01:15:09;;;;;;;7.90;2.60;;;;;;;21.33;59.04;101114.28;5086388;28;20679;-71
2022/06/12 01:17:40;;;;;;;5.53;2.80;;;;;;;21.26;59.38;101108.03;5082511;28;20202;-71
2022/06/12 01:20:11;;;;;;;4.53;2.17;;;;;;;21.22;59.53;101112.16;5085111;28;20610;-71
2022/06/12 01:23:12;;;;;;;5.77;2.33;;;;;;;21.29;59.72;101113.84;5079653;28;20703;-71
2022/06/12 01:26:21;;;;;;;6.73;2.50;;;;;;;21.34;59.37;101111.38;5086128;28;20206;-71
2022/06/12 01:28:54;;;;;;;7.13;2.17;;;;;;;21.42;59.23;101114.94;5081739;28;20294;-71
2022/06/12 01:31:40;;;;;;;5.67;2.70;;;;;;;21.48;58.99;101106.00;5081339;28;20781;-71
2022/06/12 01:34:20;;;;;;;5.57;2.93;;;;;;;21.49;59.33;101102.28;5082813;28;20213;-71
2022/06/12 01:36:57;;;;;;;5.07;2.70;;;;;;;21.48;59.03;101104.13;5082574;28;20702;-71
2022/06/12 01:39:37;;;;;;;5.70;2.63;;;;;;;21.32;59.70;101101.81;5082921;28;20745;-71
2022/06/12 01:42:16;;;;;;;7.53;2.87;;;;;;;21.29;60.02;101096.81;5083420;28;20210;-71
2022/06/12 01:44:54;;;;;;;4.50;2.67;;;;;;;21.29;59.96;101096.81;5085323;28;20663;-71
2022/06/12 01:47:32;;;;;;;6.13;3.20;;;;;;;21.30;59.73;101098.50;5081347;28;20208;-71
2022/06/12 01:50:09;;;;;;;4.13;2.40;;;;;;;21.34;59.51;101106.00;5084252;28;20321;-71
2022/06/12 01:52:46;;;;;;;4.17;2.30;;;;;;;21.33;59.64;101104.31;5080394;28;20217;-71
2022/06/12 01:55:32;;;;;;;5.37;2.40;;;;;;;21.32;59.70;101104.53;5084447;28;20267;-71
2022/06/12 01:58:06;;;;;;;6.17;2.90;;;;;;;21.29;60.25;101108.44;5084914;28;20206;-72
2022/06/12 02:00:38;;;;;;;5.20;2.20;;;;;;;21.29;60.31;101108.44;5078775;28;20732;-71
2022/06/12 02:03:13;;;;;;;6.70;3.03;;;;;;;21.22;60.56;101107.59;5083199;28;20217;-72
2022/06/12 02:05:49;;;;;;;5.63;2.47;;;;;;;21.21;60.37;101100.53;5084042;28;20216;-72
2022/06/12 02:08:21;;;;;;;6.43;2.60;;;;;;;21.19;60.38;101102.63;5085001;28;20492;-72
2022/06/12 02:10:54;;;;;;;5.83;2.93;;;;;;;21.15;60.77;101104.03;5079719;28;20244;-71
2022/06/12 02:13:27;;;;;;;5.40;2.93;;;;;;;21.08;61.30;101110.44;5083560;28;20206;-71
2022/06/12 02:16:01;;;;;;;10.13;2.80;;;;;;;21.04;60.93;101108.13;5082896;28;20206;-71
2022/06/12 02:18:33;;;;;;;9.97;2.97;;;;;;;21.00;60.89;101106.88;5083316;28;20290;-71
2022/06/12 02:21:06;;;;;;;6.50;2.67;;;;;;;20.97;61.03;101106.44;5081071;28;20761;-72
2022/06/12 02:23:41;;;;;;;8.17;2.90;;;;;;;20.87;61.48;101097.88;5082276;28;20217;-71
2022/06/12 02:26:12;;;;;;;7.50;3.13;;;;;;;20.78;62.25;101097.22;5079558;28;20202;-71
2022/06/12 02:28:43;;;;;;;6.50;3.20;;;;;;;20.68;62.53;101104.81;5081712;28;20207;-69
2022/06/12 02:31:18;;;;;;;6.20;3.03;;;;;;;20.63;62.78;101112.69;5085963;28;20892;-71
2022/06/12 02:33:51;;;;;;;7.17;2.87;;;;;;;20.67;62.73;101098.59;5079674;28;20213;-72
2022/06/12 02:36:24;;;;;;;4.73;2.80;;;;;;;20.73;62.91;101090.78;5084760;28;20334;-71
2022/06/12 02:38:57;;;;;;;5.07;2.90;;;;;;;20.83;62.44;101099.31;5082686;28;20211;-71
2022/06/12 02:41:30;;;;;;;7.73;3.17;;;;;;;20.84;62.38;101099.13;5081993;28;20295;-70
2022/06/12 02:44:02;;;;;;;11.20;2.93;;;;;;;20.88;62.19;101103.06;5076321;28;20246;-71
2022/06/12 02:46:36;;;;;;;8.50;2.70;;;;;;;20.90;62.00;101105.56;5083347;28;20253;-72
2022/06/12 02:49:06;;;;;;;5.97;2.70;;;;;;;20.86;62.05;101107.81;5083683;28;20199;-71
2022/06/12 02:51:40;;;;;;;4.90;3.20;;;;;;;20.80;62.80;101105.09;5084223;28;20722;-71
2022/06/12 02:54:17;;;;;;;7.27;3.00;;;;;;;20.80;62.33;101108.63;5082445;28;20300;-71
2022/06/12 02:56:52;;;;;;;7.57;3.00;;;;;;;20.79;62.71;101116.91;5082271;28;20202;-71
2022/06/12 02:59:31;;;;;;;4.80;2.70;;;;;;;20.59;63.49;101111.41;5082953;28;20265;-71
2022/06/12 03:02:08;;;;;;;6.43;2.97;;;;;;;20.44;64.23;101114.22;5083535;28;20291;-71
2022/06/12 03:04:42;;;;;;;7.47;3.47;;;;;;;20.46;64.50;101122.94;5081952;28;20679;-71
2022/06/12 03:07:10;;;;;;;5.90;3.07;;;;;;;20.50;64.86;101113.41;5083843;28;20290;-71
2022/06/12 03:09:39;;;;;;;9.77;3.57;;;;;;;20.53;64.53;101121.13;5083205;28;20957;-71
2022/06/12 03:12:08;;;;;;;7.30;3.00;;;;;;;20.55;64.20;101116.38;5083818;28;20219;-71
2022/06/12 03:14:36;;;;;;;5.20;3.20;;;;;;;20.47;64.57;101116.53;5082037;28;20297;-71
2022/06/12 03:17:06;;;;;;;5.10;2.97;;;;;;;20.40;64.44;101112.97;5083340;28;20306;-71
2022/06/12 03:19:42;;;;;;;6.43;3.20;;;;;;;20.31;64.94;101111.41;5085155;28;20293;-72
2022/06/12 03:22:20;;;;;;;5.50;2.63;;;;;;;20.31;65.18;101124.06;5084355;28;20587;-71
2022/06/12 03:25:08;;;;;;;4.47;2.83;;;;;;;20.21;65.81;101124.38;5083958;28;20238;-71
2022/06/12 03:27:54;;;;;;;5.43;3.23;;;;;;;20.25;66.04;101133.72;5082555;28;20206;-71
2022/06/12 03:30:27;;;;;;;6.23;3.30;;;;;;;20.09;66.52;101132.16;5084377;28;20234;-71
2022/06/12 03:33:07;;;;;;;7.10;2.90;;;;;;;20.15;66.31;101131.38;5085045;28;20716;-72
2022/06/12 03:35:46;;;;;;;8.13;3.30;;;;;;;20.25;65.92;101128.34;5083552;28;20486;-71
2022/06/12 03:38:20;;;;;;;5.93;3.37;;;;;;;20.33;65.75;101125.50;5089433;28;20230;-71
2022/06/12 03:40:57;;;;;;;6.67;3.37;;;;;;;20.40;65.04;101128.28;5086183;28;20213;-72
2022/06/12 03:43:33;;;;;;;7.17;3.77;;;;;;;20.42;64.70;101126.22;5082192;28;20605;-71
2022/06/12 03:46:10;;;;;;;6.07;3.10;;;;;;;20.39;65.05;101124.75;5081977;28;20206;-71
2022/06/12 03:48:45;;;;;;;4.87;2.93;;;;;;;20.41;64.86;101133.47;5084634;28;20203;-71
2022/06/12 03:51:20;;;;;;;4.33;2.83;;;;;;;20.40;65.07;101128.28;5084654;28;20249;-71
2022/06/12 03:53:54;;;;;;;4.97;2.73;;;;;;;20.42;65.24;101127.03;5083076;28;20309;-71
2022/06/12 03:59:21;;;;;;;6.97;3.00;;;;;;;20.42;65.27;101127.03;5089276;28;20198;-71
2022/06/12 04:01:52;;;;;;;7.27;3.10;;;;;;;20.47;64.91;101132.69;5084997;28;20658;-71
2022/06/12 04:04:25;;;;;;;6.73;3.77;;;;;;;20.48;64.96;101126.28;5087838;28;20568;-71
2022/06/12 04:06:56;;;;;;;5.80;2.43;;;;;;;20.53;65.14;101133.75;5086889;28;20658;-71
2022/06/12 04:09:28;;;;;;;6.47;3.17;;;;;;;20.55;65.32;101131.72;5085201;28;20326;-71
2022/06/12 04:11:58;;;;;;;6.53;3.10;;;;;;;20.58;65.43;101132.13;5083368;28;20292;-72
2022/06/12 04:14:32;;;;;;;8.17;3.20;;;;;;;20.63;65.07;101136.94;5091370;28;20232;-71
2022/06/12 04:17:05;;;;;;;6.90;3.50;;;;;;;20.61;65.69;101131.75;5085145;28;20245;-71
2022/06/12 04:19:58;;;;;;;7.70;3.43;;;;;;;20.44;66.68;101125.00;5084933;28;20655;-71
2022/06/12 04:22:33;;;;;;;5.27;3.53;;;;;;;20.31;67.63;101138.34;5085881;28;20209;-71
2022/06/12 04:25:14;;;;;;;5.73;3.20;;;;;;;20.37;66.84;101129.50;5086489;28;20750;-71
2022/06/12 04:27:43;;;;;;;6.47;3.13;;;;;;;20.32;66.77;101141.88;5083476;28;20278;-71
2022/06/12 04:30:20;;;;;;;7.53;3.43;;;;;;;20.33;66.99;101146.22;5084925;28;20235;-71
2022/06/12 04:32:48;;;;;;;7.07;3.33;;;;;;;20.25;66.57;101147.19;5085074;28;20218;-71
2022/06/12 04:35:18;;;;;;;7.00;3.40;;;;;;;20.20;66.37;101150.47;5088251;28;20244;-71
2022/06/12 04:37:46;;;;;;;8.43;4.17;;;;;;;20.14;66.47;101145.84;5083103;28;20207;-71
2022/06/12 04:40:25;;;;;;;8.80;3.90;;;;;;;20.13;66.72;101156.84;5086768;28;20206;-71
2022/06/12 04:42:54;;;;;;;7.83;3.93;;;;;;;20.01;66.73;101145.75;5086279;28;20239;-71
2022/06/12 04:45:22;;;;;;;9.50;4.03;;;;;;;19.94;67.10;101144.03;5088981;28;20715;-71
2022/06/12 04:47:53;;;;;;;7.67;3.50;;;;;;;19.85;67.60;101146.84;5082960;28;20229;-72
2022/06/12 04:50:22;;;;;;;7.10;3.93;;;;;;;19.81;67.74;101153.63;5087049;28;20752;-71
2022/06/12 04:52:51;;;;;;;6.40;3.90;;;;;;;19.89;67.92;101153.50;5084506;28;20683;-71
2022/06/12 04:55:19;;;;;;;6.60;4.00;;;;;;;19.86;67.62;101153.91;5086215;28;20664;-71
2022/06/12 04:57:49;;;;;;;6.37;4.10;;;;;;;19.82;67.83;101155.28;5087974;28;20721;-70
2022/06/12 05:00:19;;;;;;;5.93;3.70;;;;;;;19.92;68.14;101158.50;5081346;28;20301;-71
2022/06/12 05:02:47;;;;;;;8.37;3.37;;;;;;;19.99;68.05;101160.41;5085042;28;20210;-71
2022/06/12 05:05:15;;;;;;;7.90;3.80;;;;;;;20.12;67.78;101165.94;5084426;28;20251;-71
2022/06/12 05:07:49;;;;;;;8.90;4.07;;;;;;;20.20;67.23;101165.81;5083752;28;20210;-72
2022/06/12 05:10:18;;;;;;;8.57;3.40;;;;;;;20.31;66.58;101167.97;5083846;28;20694;-71
2022/06/12 05:12:46;;;;;;;6.03;3.67;;;;;;;20.31;66.59;101162.59;5085429;28;20203;-72
2022/06/12 05:15:15;;;;;;;7.93;3.43;;;;;;;20.24;67.40;101154.44;5081749;28;20203;-71
2022/06/12 05:17:46;;;;;;;9.87;3.73;;;;;;;20.25;67.08;101158.78;5086238;28;20297;-71
2022/06/12 05:20:18;;;;;;;8.87;3.90;;;;;;;20.31;67.20;101157.19;5084158;28;20357;-71
2022/06/12 05:22:48;;;;;;;8.90;3.63;;;;;;;20.35;67.24;101150.41;5083513;28;20214;-72
2022/06/12 05:25:16;;;;;;;8.37;3.50;;;;;;;20.47;66.96;101146.16;5081459;28;20228;-71
2022/06/12 05:27:46;;;;;;;11.13;3.67;;;;;;;20.58;66.98;101142.91;5085037;28;20246;-71
2022/06/12 05:30:16;;;;;;;7.37;3.73;;;;;;;20.64;66.88;101141.31;5085829;28;20317;-71
2022/06/12 05:32:57;;;;;;;;;;;;;;;;;;;;;
2022/06/12 05:35:25;;;;;;;6.77;4.00;;;;;;;20.87;66.25;101141.84;5085683;28;20218;-71
2022/06/12 05:37:54;;;;;;;9.20;3.33;;;;;;;20.90;66.29;101149.53;5082627;28;20207;-71
2022/06/12 05:40:24;;;;;;;11.33;4.27;;;;;;;20.93;66.17;101151.00;5086206;28;20294;-71
2022/06/12 05:42:52;;;;;;;9.60;3.97;;;;;;;20.98;65.94;101143.97;5083186;28;20581;-72
2022/06/12 05:45:23;;;;;;;7.37;3.50;;;;;;;21.01;65.29;101143.59;5082998;28;20211;-71
2022/06/12 05:47:53;;;;;;;6.83;3.07;;;;;;;21.04;65.67;101145.03;5085716;28;20234;-72
2022/06/12 05:50:24;;;;;;;4.57;3.03;;;;;;;21.08;66.02;101138.22;5083950;28;20316;-72
2022/06/12 05:52:54;;;;;;;6.07;3.27;;;;;;;21.11;65.50;101137.81;5084776;28;20713;-70
2022/06/12 05:55:22;;;;;;;4.83;2.80;;;;;;;21.18;65.13;101144.13;5081859;28;20638;-70
2022/06/12 05:57:50;;;;;;;7.17;2.63;;;;;;;21.25;65.23;101152.22;5080628;28;20635;-70
2022/06/12 06:00:22;;;;;;;10.40;3.60;;;;;;;21.31;64.85;101141.44;5082618;28;20578;-70
2022/06/12 06:02:50;;;;;;;5.73;3.10;;;;;;;21.32;64.53;101144.97;5080600;28;20270;-70
2022/06/12 06:05:19;;;;;;;5.47;2.80;;;;;;;21.30;64.80;101147.88;5084458;28;20483;-71
2022/06/12 06:07:46;;;;;;;8.83;2.93;;;;;;;21.34;64.69;101149.16;5083714;28;20207;-71
2022/06/12 06:10:19;;;;;;;7.33;3.00;;;;;;;21.40;65.03;101150.19;5083456;28;20570;-71
2022/06/12 06:12:47;;;;;;;10.20;3.10;;;;;;;21.41;65.03;101149.16;5084137;28;20199;-71
2022/06/12 06:15:15;;;;;;;6.90;2.87;;;;;;;21.47;64.55;101147.50;5083614;28;20227;-71
2022/06/12 06:17:43;;;;;;;6.87;2.80;;;;;;;21.53;64.30;101147.56;5085202;28;20679;-71
2022/06/12 06:20:16;;;;;;;7.53;2.70;;;;;;;21.55;64.43;101155.44;5085785;28;20218;-71
2022/06/12 06:22:44;;;;;;;8.47;3.37;;;;;;;21.61;64.57;101144.66;5079213;28;20523;-71
2022/06/12 06:25:12;;;;;;;5.97;2.80;;;;;;;21.73;64.35;101152.97;5084227;28;20292;-71
2022/06/12 06:27:41;;;;;;;7.13;3.07;;;;;;;21.77;63.76;101146.16;5081129;28;20226;-71
2022/06/12 06:30:11;;;;;;;5.60;2.70;;;;;;;21.83;63.67;101144.47;5080097;28;20758;-70
2022/06/12 06:32:39;;;;;;;5.07;2.70;;;;;;;21.86;63.17;101142.22;5085219;28;20250;-71
2022/06/12 06:35:09;;;;;;;8.43;3.40;;;;;;;21.90;63.72;101151.56;5084143;28;20233;-71
2022/06/12 06:37:37;;;;;;;5.43;2.50;;;;;;;21.95;63.93;101153.66;5087766;28;20600;-71
2022/06/12 06:40:08;;;;;;;5.53;2.90;;;;;;;22.02;63.60;101152.66;5083627;28;20716;-71
2022/06/12 06:42:36;;;;;;;4.90;2.67;;;;;;;22.10;63.50;101144.34;5085640;28;20202;-71
2022/06/12 06:47:52;;;;;;;8.80;3.30;;;;;;;22.19;63.13;101147.66;5036759;28;20329;-71
2022/06/12 06:50:21;;;;;;;6.30;2.73;;;;;;;22.25;62.84;101143.31;5086303;28;20345;-71
2022/06/12 06:52:50;;;;;;;5.40;2.40;;;;;;;22.29;62.42;101149.94;5086782;28;20234;-71
2022/06/12 06:55:17;;;;;;;6.30;2.27;;;;;;;22.32;62.51;101142.28;5084572;28;20227;-72
2022/06/12 06:57:48;;;;;;;6.87;2.47;;;;;;;22.40;62.40;101143.94;5092805;28;20628;-72
2022/06/12 07:00:22;;;;;;;6.50;2.22;;;;;;;22.46;60.94;101145.78;5092217;28;20253;-72
2022/06/12 07:02:50;;;;;;;6.60;2.10;;;;;;;22.51;59.95;101146.00;5094031;28;20536;-72
2022/06/12 07:05:19;;;;;;;7.80;2.90;;;;;;;22.56;60.23;101150.75;5090994;28;20199;-72
2022/06/12 07:07:48;;;;;;;8.33;2.53;;;;;;;22.53;60.45;101136.63;5089736;28;20208;-72
2022/06/12 07:10:19;;;;;;;5.93;2.40;;;;;;;22.57;60.32;101144.31;5090823;28;20959;-71
2022/06/12 07:12:47;;;;;;;7.83;2.73;;;;;;;22.62;59.79;101142.63;5086036;28;20190;-71
2022/06/12 07:15:16;;;;;;;9.00;2.83;;;;;;;22.68;59.63;101147.22;5086833;28;20231;-71
2022/06/12 07:17:46;;;;;;;7.15;2.90;;;;;;;22.76;59.42;101149.72;5089296;28;20210;-71
2022/06/12 07:20:16;;;;;;;5.83;2.40;;;;;;;22.81;58.35;101147.22;5090485;28;20207;-71
2022/06/12 07:22:44;;;;;;;8.17;2.73;;;;;;;22.91;58.17;101145.94;5088273;28;20290;-71
2022/06/12 07:25:13;;;;;;;5.38;2.20;;;;;;;22.96;58.29;101143.41;5089207;28;20274;-71
2022/06/12 07:27:42;;;;;;;6.20;2.50;;;;;;;23.02;58.44;101142.56;5089215;28;22100;-71
2022/06/12 07:30:15;;;;;;;4.68;2.13;;;;;;;23.08;58.60;101133.59;5088492;28;20281;-71
2022/06/12 07:32:42;;;;;;;5.32;2.08;;;;;;;23.15;58.74;101137.09;5091870;28;20730;-71
2022/06/12 07:35:12;;;;;;;5.88;2.28;;;;;;;23.19;57.77;101131.06;5094351;28;20498;-71
2022/06/12 07:37:41;;;;;;;13.77;3.00;;;;;;;23.28;57.68;101131.66;5094306;28;20210;-63
2022/06/12 07:40:17;;;;;;;7.68;2.38;;;;;;;23.41;56.48;101128.84;5089778;28;20800;-63
2022/06/12 07:42:45;;;;;;;4.38;2.20;;;;;;;23.44;56.09;101124.91;5086759;28;20313;-64
2022/06/12 07:45:14;;;;;;;5.22;2.60;;;;;;;23.46;56.31;101122.81;5086744;28;20293;-64
2022/06/12 07:47:41;;;;;;;10.50;2.90;;;;;;;23.49;56.06;101134.03;5093619;28;20211;-64
2022/06/12 07:50:12;;;;;;;9.55;3.17;;;;;;;23.54;56.00;101128.00;5096604;28;20266;-64
2022/06/12 07:52:42;;;;;;;6.22;2.22;;;;;;;23.56;55.85;101128.63;5095184;28;20209;-63
2022/06/12 07:55:13;;;;;;;8.23;2.83;;;;;;;23.60;55.71;101127.94;5088605;28;20230;-64
2022/06/12 07:57:41;;;;;;;7.30;2.63;;;;;;;23.67;55.00;101124.38;5091131;28;20205;-62
2022/06/12 08:00:11;;;;;;;4.93;2.17;;;;;;;23.70;54.92;101123.94;5098802;28;20207;-65
2022/06/12 08:02:41;;;;;;;4.93;2.10;;;;;;;23.77;54.82;101130.97;5089409;28;20578;-67
2022/06/12 08:05:10;;;;;;;6.28;2.28;;;;;;;23.86;54.98;101121.53;5095368;28;20214;-67
2022/06/12 08:07:39;;;;;;;4.72;2.38;;;;;;;23.94;54.85;101126.69;5098990;28;20569;-66
2022/06/12 08:10:08;;;;;;;3.50;2.05;;;;;;;24.09;54.49;101117.41;5093792;28;20214;-67
2022/06/12 08:12:38;;;;;;;8.55;3.28;;;;;;;24.21;53.94;101121.91;5098667;28;20206;-65
2022/06/12 08:15:08;;;;;;;3.65;2.22;;;;;;;24.31;52.98;101124.94;5088888;28;20309;-64
2022/06/12 08:17:36;;;;;;;7.57;2.38;;;;;;;24.41;52.59;101121.72;5088368;28;20207;-66
2022/06/12 08:22:51;;;;;;;7.10;2.50;;;;;;;24.57;51.49;101117.59;5093970;28;20256;-64
2022/06/12 08:25:19;;;;;;;3.97;2.08;;;;;;;24.68;52.13;101111.44;5090278;28;20243;-65
2022/06/12 08:27:48;;;;;;;5.95;2.72;;;;;;;24.79;51.98;101121.53;5083634;28;20628;-67
2022/06/12 08:30:15;;;;;;;4.38;2.03;;;;;;;24.88;51.66;101117.47;5085126;28;20227;-66
2022/06/12 08:32:46;;;;;;;10.10;3.15;;;;;;;24.99;51.27;101118.59;5088835;28;20641;-66
2022/06/12 08:35:18;;;;;;;12.43;2.10;;;;;;;25.05;51.74;101126.69;5083809;28;20321;-67
2022/06/12 08:37:46;;;;;;;5.28;2.30;;;;;;;25.14;51.02;101112.81;5085504;28;20671;-67
2022/06/12 08:40:21;;;;;;;7.45;2.40;;;;;;;25.20;51.10;101112.72;5089759;28;20252;-67
2022/06/12 08:43:00;;;;;;;4.68;2.17;;;;;;;25.29;50.44;101110.50;5089077;28;20231;-67
2022/06/12 08:45:34;;;;;;;6.43;2.70;;;;;;;25.33;50.50;101109.81;5084424;28;20977;-66
2022/06/12 08:48:08;;;;;;;7.13;2.28;;;;;;;25.37;50.06;101105.59;5088084;28;20242;-66
2022/06/12 08:50:41;;;;;;;7.35;2.60;;;;;;;25.42;49.99;101104.88;5086090;28;20234;-66
2022/06/12 08:53:13;;;;;;;6.90;2.28;;;;;;;25.51;49.66;101095.38;5084004;28;20212;-66
2022/06/12 08:55:47;;;;;;;3.90;2.20;;;;;;;25.58;49.80;101106.16;5084895;28;20314;-66
2022/06/12 08:58:19;;;;;;;6.38;2.22;;;;;;;25.65;50.02;101102.31;5084830;28;20834;-66
2022/06/12 09:00:48;;;;;;;5.60;2.00;;;;;;;25.70;49.45;101097.00;5083117;28;20712;-66
2022/06/12 09:03:19;;;;;;;4.28;2.22;;;;;;;25.76;49.55;101103.41;5084971;28;20576;-67
2022/06/12 09:05:53;;;;;;;5.47;2.22;;;;;;;25.79;49.14;101097.47;5085382;28;20289;-66
2022/06/12 09:08:28;;;;;;;5.03;2.20;;;;;;;25.77;48.40;101096.91;5084729;28;20222;-66
2022/06/12 09:11:09;;;;;;;3.50;2.17;;;;;;;25.89;48.99;101099.63;5083669;28;20205;-66
2022/06/12 09:13:47;;;;;;;5.75;2.40;;;;;;;25.99;48.08;101092.56;5082717;28;20213;-66
2022/06/12 09:16:24;;;;;;;4.03;2.13;;;;;;;26.07;48.17;101089.50;5085512;28;20243;-66
2022/06/12 09:18:58;;;;;;;6.25;2.35;;;;;;;26.16;48.08;101088.09;5084273;28;20210;-66
2022/06/12 09:21:34;;;;;;;7.05;2.05;;;;;;;26.22;47.75;101081.69;5084332;28;20210;-66
2022/06/12 09:24:18;;;;;;;4.63;1.92;;;;;;;26.23;48.62;101082.53;5081829;28;20214;-67
2022/06/12 09:26:55;;;;;;;6.32;2.30;;;;;;;26.26;47.88;101076.66;5083968;28;20201;-66
2022/06/12 09:29:31;;;;;;;5.10;1.88;;;;;;;26.33;47.71;101080.06;5082222;28;20268;-66
2022/06/12 09:32:12;;;;;;;7.57;2.35;;;;;;;26.42;47.51;101070.50;5085737;28;20210;-66
2022/06/12 09:34:48;;;;;;;4.05;1.95;;;;;;;26.48;47.42;101068.69;5087170;28;20604;-66
2022/06/12 09:40:24;;;;;;;5.15;2.05;;;;;;;26.56;47.93;101062.94;5083113;28;20209;-66
2022/06/12 09:43:00;;;;;;;4.63;2.33;;;;;;;26.62;48.25;101064.69;5083644;28;20258;-66
2022/06/12 09:45:40;;;;;;;4.22;2.13;;;;;;;26.70;47.86;101060.75;5083135;28;20293;-66
2022/06/12 09:48:20;;;;;;;3.83;2.22;;;;;;;26.80;46.99;101060.97;5082704;28;20206;-66
2022/06/12 09:51:01;;;;;;;3.95;1.70;;;;;;;26.85;46.89;101053.72;5083141;28;20722;-66
2022/06/12 09:53:48;;;;;;;5.63;2.22;;;;;;;26.87;46.95;101058.94;5078168;28;20206;-66
2022/06/12 09:56:21;;;;;;;7.63;2.10;;;;;;;26.92;46.81;101049.00;5083401;28;20310;-66
2022/06/12 09:58:57;;;;;;;7.95;1.85;;;;;;;26.93;46.97;101047.94;5081082;28;20208;-66
2022/06/12 10:01:29;;;;;;;5.45;1.75;;;;;;;27.07;46.17;101051.22;5083436;28;20203;-66
2022/06/12 10:04:01;;;;;;;9.32;2.83;;;;;;;27.08;46.14;101052.88;5081425;28;20628;-67
2022/06/12 10:06:36;;;;;;;4.90;2.05;;;;;;;27.08;46.34;101041.97;5083774;28;20316;-67
2022/06/12 10:09:09;;;;;;;4.40;2.10;;;;;;;27.12;46.02;101043.13;5082148;28;20448;-66
2022/06/12 10:11:43;;;;;;;5.78;2.05;;;;;;;27.20;46.01;101040.00;5085690;28;20241;-68
2022/06/12 10:14:17;;;;;;;3.72;1.98;;;;;;;27.29;45.85;101037.72;5081601;28;20221;-67
2022/06/12 10:16:49;;;;;;;6.25;2.25;;;;;;;27.25;45.90;101031.97;5081352;28;20261;-67
2022/06/12 10:19:31;;;;;;;3.72;2.28;;;;;;;27.04;45.91;101035.34;5079625;28;20194;-67
2022/06/12 10:22:03;;;;;;;4.50;2.67;;;;;;;26.91;45.90;101030.22;5080730;28;20233;-67
2022/06/12 10:24:30;;;;;;;4.68;2.33;;;;;;;26.94;46.11;101024.28;5084613;28;20218;-66
2022/06/12 10:27:02;;;;;;;4.35;2.05;;;;;;;27.00;45.89;101017.88;5082987;28;20658;-67
2022/06/12 10:29:42;;;;;;;4.78;2.30;;;;;;;27.10;45.76;101020.75;5082463;28;21197;-66
2022/06/12 10:32:15;;;;;;;6.78;2.20;;;;;;;27.16;45.69;101016.25;5082603;28;20674;-66
2022/06/12 10:34:51;;;;;;;6.85;2.20;;;;;;;27.31;45.22;101014.63;5082499;28;20298;-66
2022/06/12 10:37:22;;;;;;;4.30;2.28;;;;;;;27.22;45.66;101010.66;5086032;28;20210;-67
2022/06/12 10:40:01;;;;;;;7.60;2.67;;;;;;;27.22;45.97;101010.66;5082392;28;20694;-67
2022/06/12 10:42:39;;;;;;;3.80;2.00;;;;;;;27.32;45.38;101005.41;5083239;28;20210;-67
2022/06/12 10:45:21;;;;;;;6.57;2.17;;;;;;;27.41;44.89;101005.00;5081904;28;20209;-67
2022/06/12 10:47:51;;;;;;;5.10;1.83;;;;;;;27.39;45.25;101009.84;5086308;28;20195;-67
2022/06/12 10:50:28;;;;;;;5.07;2.30;;;;;;;27.42;45.46;101001.19;5071896;28;20235;-67
2022/06/12 10:52:59;;;;;;;5.47;2.17;;;;;;;27.54;45.11;101002.78;5062182;28;20223;-68
2022/06/12 10:55:54;;;;;;;6.43;2.28;;;;;;;27.62;44.79;100998.81;5060329;28;20213;-67
2022/06/12 10:58:46;;;;;;;4.97;1.95;;;;;;;27.66;44.92;100995.38;5055257;28;20290;-68
2022/06/12 11:01:28;;;;;;;7.20;2.10;;;;;;;27.57;44.26;100991.41;5063026;28;20952;-67
2022/06/12 11:04:04;;;;;;;12.50;2.25;;;;;;;27.56;44.53;100986.19;5060522;28;20579;-67
2022/06/12 11:06:43;;;;;;;26.30;2.20;;;;;;;27.63;45.25;100978.69;5065211;28;20294;-68
2022/06/12 11:09:24;;;;;;;6.65;1.80;;;;;;;27.48;44.90;100978.41;5067542;28;20278;-67
2022/06/12 11:12:05;;;;;;;4.03;2.13;;;;;;;27.21;45.33;100976.34;5070276;28;20238;-64
2022/06/12 11:14:57;;;;;;;5.45;1.92;;;;;;;27.07;45.53;100972.28;5066829;28;20589;-69
2022/06/12 11:17:41;;;;;;;3.80;1.80;;;;;;;27.13;45.26;100973.19;5070403;28;20235;-67
2022/06/12 11:20:25;;;;;;;7.22;2.30;;;;;;;27.04;45.53;100970.03;5067614;28;20764;-67
2022/06/12 11:23:11;;;;;;;4.32;1.80;;;;;;;27.05;46.39;100971.69;5068273;28;20217;-66
2022/06/12 11:26:12;;;;;;;7.22;2.15;;;;;;;27.07;45.71;100955.94;5065961;28;20214;-70
2022/06/12 11:28:51;;;;;;;5.60;1.90;;;;;;;27.02;45.73;100955.00;5062973;28;20311;-70
2022/06/12 11:31:34;;;;;;;4.65;1.90;;;;;;;27.05;46.31;100960.81;5065556;28;20286;-70
2022/06/12 11:34:20;;;;;;;3.25;1.80;;;;;;;26.95;46.24;100952.44;5066452;28;20218;-70
2022/06/12 11:37:01;;;;;;;3.78;1.83;;;;;;;27.01;46.36;100943.28;5069173;28;20308;-69
2022/06/12 11:39:41;;;;;;;7.93;2.03;;;;;;;27.04;46.28;100947.44;5064885;28;20270;-69
2022/06/12 11:42:19;;;;;;;9.40;3.03;;;;;;;27.00;46.30;100949.00;5063832;28;20294;-69
2022/06/12 11:45:01;;;;;;;12.35;7.00;;;;;;;26.98;45.85;100949.25;5064209;28;20295;-68
2022/06/12 11:47:44;;;;;;;18.85;3.95;;;;;;;26.89;46.63;100945.25;5062183;28;20282;-67
2022/06/12 11:50:26;;;;;;;17.35;3.40;;;;;;;26.81;46.89;100935.59;5073746;28;20244;-68
2022/06/12 11:53:04;;;;;;;8.98;2.47;;;;;;;27.07;47.99;100931.44;5086799;28;20301;-62
2022/06/12 11:55:39;;;;;;;8.88;2.55;;;;;;;27.34;45.98;100932.47;5084878;28;20236;-63
2022/06/12 11:58:40;;;;;;;10.77;2.15;;;;;;;27.58;45.71;100935.84;5083790;28;20301;-63
2022/06/12 12:01:16;;;;;;;8.25;2.40;;;;;;;27.73;45.11;100927.06;5084377;28;20268;-64
2022/06/12 12:04:19;;;;;;;106.32;8.02;;;;;;;27.85;45.16;100914.19;5083759;28;20301;-65
2022/06/12 12:07:00;;;;;;;5.22;1.73;;;;;;;27.69;43.76;100915.03;5083821;28;20198;-65
2022/06/12 12:09:41;;;;;;;6.68;1.67;;;;;;;27.64;44.14;100910.34;5083816;28;20215;-63
2022/06/12 12:12:14;;;;;;;7.95;1.83;;;;;;;27.57;44.58;100909.69;5086424;28;20213;-62